sensor_id;sensor_type;location;lat;lon;timestamp;pressure;altitude;pressure_sealevel;temperature;humidity
54270;BME280;40181;51.560;13.000;2022-10-22T00:01:52;100246.91;;;12.39;100.00
54270;BME280;40181;51.560;13.000;2022-10-22T00:04:22;100243.38;;;12.51;100.00
54270;BME280;40181;51.560;13.000;2022-10-22T00:06:51;100248.66;;;12.53;100.00
54270;BME280;40181;51.560;13.000;2022-10-22T00:09:20;100250.44;;;12.60;100.00
54270;BME280;40181;51.560;13.000;2022-10-22T00:11:49;100256.56;;;12.57;100.00
54270;BME280;40181;51.560;13.000;2022-10-22T00:14:21;100264.47;;;12.62;100.00
54270;BME280;40181;51.560;13.000;2022-10-22T00:16:50;100245.16;;;12.60;100.00
54270;BME280;40181;51.560;13.000;2022-10-22T00:19:20;100231.09;;;12.77;100.00
54270;BME280;40181;51.560;13.000;2022-10-22T00:21:49;100219.66;;;12.89;100.00
54270;BME280;40181;51.560;13.000;2022-10-22T00:24:19;100207.38;;;12.81;100.00
54270;BME280;40181;51.560;13.000;2022-10-22T00:26:48;100219.69;;;12.48;100.00
54270;BME280;40181;51.560;13.000;2022-10-22T00:29:17;100221.47;;;12.38;100.00
54270;BME280;40181;51.560;13.000;2022-10-22T00:31:49;100239.00;;;12.41;100.00
54270;BME280;40181;51.560;13.000;2022-10-22T00:34:20;100249.53;;;12.70;100.00
54270;BME280;40181;51.560;13.000;2022-10-22T00:36:50;100231.09;;;12.70;100.00
54270;BME280;40181;51.560;13.000;2022-10-22T00:39:21;100238.13;;;12.51;100.00
54270;BME280;40181;51.560;13.000;2022-10-22T00:41:53;100235.50;;;12.53;100.00
54270;BME280;40181;51.560;13.000;2022-10-22T00:47:45;100225.81;;;12.69;100.00
54270;BME280;40181;51.560;13.000;2022-10-22T00:50:22;100239.00;;;12.56;100.00
54270;BME280;40181;51.560;13.000;2022-10-22T00:52:54;100234.59;;;12.63;100.00
54270;BME280;40181;51.560;13.000;2022-10-22T00:55:25;100233.72;;;12.69;100.00
54270;BME280;40181;51.560;13.000;2022-10-22T00:57:57;100232.00;;;12.38;100.00
54270;BME280;40181;51.560;13.000;2022-10-22T01:00:28;100239.91;;;12.48;100.00
54270;BME280;40181;51.560;13.000;2022-10-22T01:02:58;100252.19;;;12.44;100.00
54270;BME280;40181;51.560;13.000;2022-10-22T01:05:29;100263.63;;;12.52;100.00
54270;BME280;40181;51.560;13.000;2022-10-22T01:08:00;100256.59;;;12.61;100.00
54270;BME280;40181;51.560;13.000;2022-10-22T01:10:37;100248.69;;;12.54;100.00
54270;BME280;40181;51.560;13.000;2022-10-22T01:13:24;100252.16;;;12.59;100.00
54270;BME280;40181;51.560;13.000;2022-10-22T01:16:08;100235.50;;;12.48;100.00
54270;BME280;40181;51.560;13.000;2022-10-22T01:18:46;100237.25;;;12.76;100.00
54270;BME280;40181;51.560;13.000;2022-10-22T01:21:27;100238.13;;;12.64;100.00
54270;BME280;40181;51.560;13.000;2022-10-22T01:24:18;100223.22;;;12.49;100.00
54270;BME280;40181;51.560;13.000;2022-10-22T01:27:14;100222.31;;;12.36;100.00
54270;BME280;40181;51.560;13.000;2022-10-22T01:29:56;100231.97;;;12.54;100.00
54270;BME280;40181;51.560;13.000;2022-10-22T01:32:28;100239.88;;;12.46;100.00
54270;BME280;40181;51.560;13.000;2022-10-22T01:35:03;100231.09;;;12.36;100.00
54270;BME280;40181;51.560;13.000;2022-10-22T01:37:39;100242.53;;;12.34;100.00
54270;BME280;40181;51.560;13.000;2022-10-22T01:40:14;100245.16;;;12.34;100.00
54270;BME280;40181;51.560;13.000;2022-10-22T01:42:56;100244.28;;;12.44;100.00
54270;BME280;40181;51.560;13.000;2022-10-22T01:45:32;100230.22;;;12.31;100.00
54270;BME280;40181;51.560;13.000;2022-10-22T01:48:15;100238.09;;;12.32;100.00
54270;BME280;40181;51.560;13.000;2022-10-22T01:51:04;100225.84;;;12.38;100.00
54270;BME280;40181;51.560;13.000;2022-10-22T01:53:44;100223.19;;;12.45;100.00
54270;BME280;40181;51.560;13.000;2022-10-22T01:56:41;100212.66;;;12.41;100.00
54270;BME280;40181;51.560;13.000;2022-10-22T01:59:21;100231.97;;;12.54;100.00
54270;BME280;40181;51.560;13.000;2022-10-22T02:02:04;100225.84;;;12.53;100.00
54270;BME280;40181;51.560;13.000;2022-10-22T02:04:43;100231.97;;;12.40;100.00
54270;BME280;40181;51.560;13.000;2022-10-22T02:07:18;100236.34;;;12.41;100.00
54270;BME280;40181;51.560;13.000;2022-10-22T02:09:51;100235.47;;;12.32;100.00
54270;BME280;40181;51.560;13.000;2022-10-22T02:12:20;100222.31;;;12.39;100.00
54270;BME280;40181;51.560;13.000;2022-10-22T02:14:52;100234.59;;;12.44;100.00
54270;BME280;40181;51.560;13.000;2022-10-22T02:17:28;100223.19;;;12.45;100.00
54270;BME280;40181;51.560;13.000;2022-10-22T02:20:03;100223.19;;;12.42;100.00
54270;BME280;40181;51.560;13.000;2022-10-22T02:22:35;100230.22;;;12.45;100.00
54270;BME280;40181;51.560;13.000;2022-10-22T02:25:06;100218.81;;;12.52;100.00
54270;BME280;40181;51.560;13.000;2022-10-22T02:27:40;100209.16;;;12.59;100.00
54270;BME280;40181;51.560;13.000;2022-10-22T02:30:14;100216.16;;;12.63;100.00
54270;BME280;40181;51.560;13.000;2022-10-22T04:12:06;100257.44;;;12.89;100.00
54270;BME280;40181;51.560;13.000;2022-10-22T04:14:35;100267.13;;;12.62;100.00
54270;BME280;40181;51.560;13.000;2022-10-22T04:19:39;100261.81;;;12.90;100.00
54270;BME280;40181;51.560;13.000;2022-10-22T04:22:08;100270.63;;;12.97;100.00
54270;BME280;40181;51.560;13.000;2022-10-22T04:24:37;100269.72;;;13.04;100.00
54270;BME280;40181;51.560;13.000;2022-10-22T04:27:09;100260.94;;;13.11;100.00
54270;BME280;40181;51.560;13.000;2022-10-22T04:29:38;100271.47;;;13.16;100.00
54270;BME280;40181;51.560;13.000;2022-10-22T04:32:07;100267.13;;;12.75;100.00
54270;BME280;40181;51.560;13.000;2022-10-22T04:34:37;100260.06;;;12.84;100.00
54270;BME280;40181;51.560;13.000;2022-10-22T04:37:06;100254.81;;;12.78;100.00
54270;BME280;40181;51.560;13.000;2022-10-22T04:39:35;100249.53;;;12.89;100.00
54270;BME280;40181;51.560;13.000;2022-10-22T04:42:05;100255.69;;;12.68;100.00
54270;BME280;40181;51.560;13.000;2022-10-22T04:44:36;100249.56;;;12.72;100.00
54270;BME280;40181;51.560;13.000;2022-10-22T04:47:06;100248.69;;;12.79;100.00
54270;BME280;40181;51.560;13.000;2022-10-22T04:49:35;100254.81;;;12.86;100.00
54270;BME280;40181;51.560;13.000;2022-10-22T04:52:04;100245.16;;;12.90;100.00
54270;BME280;40181;51.560;13.000;2022-10-22T04:54:33;100258.28;;;13.00;100.00
54270;BME280;40181;51.560;13.000;2022-10-22T04:57:03;100253.91;;;12.96;100.00
54270;BME280;40181;51.560;13.000;2022-10-22T04:59:32;100261.81;;;13.15;100.00
54270;BME280;40181;51.560;13.000;2022-10-22T05:02:04;100250.38;;;13.08;100.00
54270;BME280;40181;51.560;13.000;2022-10-22T05:04:33;100260.94;;;13.04;100.00
54270;BME280;40181;51.560;13.000;2022-10-22T05:07:02;100267.06;;;13.09;100.00
54270;BME280;40181;51.560;13.000;2022-10-22T05:09:31;100260.94;;;12.82;100.00
54270;BME280;40181;51.560;13.000;2022-10-22T05:12:03;100265.34;;;12.98;100.00
54270;BME280;40181;51.560;13.000;2022-10-22T05:14:36;100253.94;;;12.81;100.00
54270;BME280;40181;51.560;13.000;2022-10-22T05:17:05;100260.09;;;12.86;100.00
54270;BME280;40181;51.560;13.000;2022-10-22T05:19:34;100268.88;;;12.80;100.00
54270;BME280;40181;51.560;13.000;2022-10-22T05:22:04;100260.09;;;12.92;100.00
54270;BME280;40181;51.560;13.000;2022-10-22T05:24:34;100269.75;;;12.92;100.00
54270;BME280;40181;51.560;13.000;2022-10-22T05:27:03;100259.19;;;12.95;100.00
54270;BME280;40181;51.560;13.000;2022-10-22T05:29:32;100253.06;;;12.80;100.00
54270;BME280;40181;51.560;13.000;2022-10-22T05:32:04;100245.16;;;12.79;100.00
54270;BME280;40181;51.560;13.000;2022-10-22T05:34:34;100251.28;;;12.71;100.00
54270;BME280;40181;51.560;13.000;2022-10-22T05:37:03;100254.78;;;12.83;100.00
54270;BME280;40181;51.560;13.000;2022-10-22T05:39:32;100259.19;;;12.76;100.00
54270;BME280;40181;51.560;13.000;2022-10-22T05:42:05;100268.88;;;12.60;100.00
54270;BME280;40181;51.560;13.000;2022-10-22T05:44:36;100275.03;;;12.59;100.00
54270;BME280;40181;51.560;13.000;2022-10-22T05:47:06;100289.09;;;12.77;100.00
54270;BME280;40181;51.560;13.000;2022-10-22T05:49:35;100280.28;;;12.85;100.00
54270;BME280;40181;51.560;13.000;2022-10-22T05:52:04;100280.28;;;12.67;100.00
54270;BME280;40181;51.560;13.000;2022-10-22T05:54:33;100288.19;;;12.71;100.00
54270;BME280;40181;51.560;13.000;2022-10-22T05:57:02;100287.31;;;12.63;100.00
54270;BME280;40181;51.560;13.000;2022-10-22T05:59:31;100296.13;;;12.87;100.00
54270;BME280;40181;51.560;13.000;2022-10-22T06:02:03;100292.59;;;12.65;100.00
54270;BME280;40181;51.560;13.000;2022-10-22T06:04:33;100290.84;;;12.75;100.00
54270;BME280;40181;51.560;13.000;2022-10-22T06:07:02;100291.72;;;12.88;100.00
54270;BME280;40181;51.560;13.000;2022-10-22T06:09:33;100293.47;;;12.95;100.00
54270;BME280;40181;51.560;13.000;2022-10-22T06:12:04;100284.69;;;13.08;100.00
54270;BME280;40181;51.560;13.000;2022-10-22T06:14:35;100282.03;;;13.11;100.00
54270;BME280;40181;51.560;13.000;2022-10-22T06:17:08;100279.38;;;13.10;100.00
54270;BME280;40181;51.560;13.000;2022-10-22T06:19:37;100291.72;;;12.95;100.00
54270;BME280;40181;51.560;13.000;2022-10-22T06:22:06;100285.56;;;12.85;100.00
54270;BME280;40181;51.560;13.000;2022-10-22T06:24:35;100317.22;;;13.07;100.00
54270;BME280;40181;51.560;13.000;2022-10-22T06:27:04;100302.25;;;13.03;100.00
54270;BME280;40181;51.560;13.000;2022-10-22T06:29:38;100328.66;;;12.88;100.00
54270;BME280;40181;51.560;13.000;2022-10-22T06:32:10;100342.66;;;12.48;100.00
54270;BME280;40181;51.560;13.000;2022-10-22T06:34:39;100335.63;;;12.64;100.00
54270;BME280;40181;51.560;13.000;2022-10-22T06:37:08;100358.50;;;12.80;100.00
54270;BME280;40181;51.560;13.000;2022-10-22T06:39:39;100347.06;;;12.70;100.00
54270;BME280;40181;51.560;13.000;2022-10-22T06:42:08;100345.31;;;12.83;100.00
54270;BME280;40181;51.560;13.000;2022-10-22T06:44:37;100343.56;;;12.95;100.00
54270;BME280;40181;51.560;13.000;2022-10-22T06:47:07;100355.84;;;12.74;100.00
54270;BME280;40181;51.560;13.000;2022-10-22T06:49:38;100354.09;;;12.85;100.00
54270;BME280;40181;51.560;13.000;2022-10-22T06:52:07;100366.41;;;12.66;100.00
54270;BME280;40181;51.560;13.000;2022-10-22T06:54:37;100371.69;;;12.90;100.00
54270;BME280;40181;51.560;13.000;2022-10-22T06:57:06;100370.75;;;12.59;100.00
54270;BME280;40181;51.560;13.000;2022-10-22T06:59:36;100371.69;;;12.71;100.00
54270;BME280;40181;51.560;13.000;2022-10-22T07:02:05;100369.91;;;12.76;100.00
54270;BME280;40181;51.560;13.000;2022-10-22T07:04:38;100369.03;;;12.69;100.00
54270;BME280;40181;51.560;13.000;2022-10-22T07:07:07;100372.56;;;12.81;100.00
54270;BME280;40181;51.560;13.000;2022-10-22T07:09:36;100366.41;;;12.96;100.00
54270;BME280;40181;51.560;13.000;2022-10-22T07:12:05;100367.28;;;12.87;100.00
54270;BME280;40181;51.560;13.000;2022-10-22T07:14:35;100372.56;;;12.92;100.00
54270;BME280;40181;51.560;13.000;2022-10-22T07:17:04;100367.28;;;12.92;100.00
54270;BME280;40181;51.560;13.000;2022-10-22T07:19:33;100382.25;;;12.99;100.00
54270;BME280;40181;51.560;13.000;2022-10-22T07:22:05;100378.72;;;13.09;100.00
54270;BME280;40181;51.560;13.000;2022-10-22T07:24:34;100387.50;;;13.07;100.00
54270;BME280;40181;51.560;13.000;2022-10-22T07:27:03;100384.88;;;13.18;100.00
54270;BME280;40181;51.560;13.000;2022-10-22T07:29:32;100395.44;;;13.19;100.00
54270;BME280;40181;51.560;13.000;2022-10-22T07:32:02;100394.56;;;13.14;100.00
54270;BME280;40181;51.560;13.000;2022-10-22T07:34:31;100408.63;;;13.30;100.00
54270;BME280;40181;51.560;13.000;2022-10-22T07:37:00;100405.09;;;13.26;100.00
54270;BME280;40181;51.560;13.000;2022-10-22T07:39:32;100409.50;;;13.21;100.00
54270;BME280;40181;51.560;13.000;2022-10-22T07:42:04;100407.75;;;13.14;100.00
54270;BME280;40181;51.560;13.000;2022-10-22T07:44:33;100413.91;;;13.36;100.00
54270;BME280;40181;51.560;13.000;2022-10-22T07:47:03;100416.53;;;13.39;100.00
54270;BME280;40181;51.560;13.000;2022-10-22T07:49:32;100427.94;;;13.41;100.00
54270;BME280;40181;51.560;13.000;2022-10-22T07:52:05;100430.63;;;13.31;100.00
54270;BME280;40181;51.560;13.000;2022-10-22T07:54:37;100443.81;;;13.40;100.00
54270;BME280;40181;51.560;13.000;2022-10-22T07:57:06;100440.28;;;13.18;100.00
54270;BME280;40181;51.560;13.000;2022-10-22T07:59:35;100439.41;;;13.28;100.00
54270;BME280;40181;51.560;13.000;2022-10-22T08:02:04;100450.84;;;13.36;100.00
54270;BME280;40181;51.560;13.000;2022-10-22T08:04:34;100448.19;;;13.36;100.00
54270;BME280;40181;51.560;13.000;2022-10-22T08:07:03;100449.06;;;13.32;100.00
54270;BME280;40181;51.560;13.000;2022-10-22T08:09:32;100450.88;;;13.46;100.00
54270;BME280;40181;51.560;13.000;2022-10-22T08:12:07;100455.22;;;13.37;100.00
54270;BME280;40181;51.560;13.000;2022-10-22T08:14:37;100448.19;;;13.44;100.00
54270;BME280;40181;51.560;13.000;2022-10-22T08:17:06;100457.03;;;13.51;100.00
54270;BME280;40181;51.560;13.000;2022-10-22T08:19:35;100453.50;;;13.58;100.00
54270;BME280;40181;51.560;13.000;2022-10-22T08:22:04;100442.91;;;13.67;100.00
54270;BME280;40181;51.560;13.000;2022-10-22T08:24:34;100451.75;;;13.63;100.00
54270;BME280;40181;51.560;13.000;2022-10-22T08:27:03;100449.13;;;13.60;100.00
54270;BME280;40181;51.560;13.000;2022-10-22T08:29:34;100457.91;;;13.73;100.00
54270;BME280;40181;51.560;13.000;2022-10-22T08:32:04;100448.19;;;13.78;100.00
54270;BME280;40181;51.560;13.000;2022-10-22T08:34:33;100459.66;;;13.73;100.00
54270;BME280;40181;51.560;13.000;2022-10-22T08:37:02;100446.44;;;13.83;100.00
54270;BME280;40181;51.560;13.000;2022-10-22T08:39:32;100460.53;;;13.75;100.00
54270;BME280;40181;51.560;13.000;2022-10-22T08:42:12;100454.34;;;13.91;100.00
54270;BME280;40181;51.560;13.000;2022-10-22T08:45:03;100455.22;;;13.96;100.00
54270;BME280;40181;51.560;13.000;2022-10-22T08:48:00;100453.44;;;13.99;100.00
54270;BME280;40181;51.560;13.000;2022-10-22T08:50:40;100467.53;;;13.94;100.00
54270;BME280;40181;51.560;13.000;2022-10-22T08:53:13;100451.63;;;14.08;100.00
54270;BME280;40181;51.560;13.000;2022-10-22T08:55:45;100463.13;;;14.01;100.00
54270;BME280;40181;51.560;13.000;2022-10-22T08:58:24;100471.94;;;14.05;100.00
54270;BME280;40181;51.560;13.000;2022-10-22T09:00:58;100468.34;;;14.18;100.00
54270;BME280;40181;51.560;13.000;2022-10-22T09:03:35;100467.44;;;14.32;100.00
54270;BME280;40181;51.560;13.000;2022-10-22T09:06:10;100468.34;;;14.21;100.00
54270;BME280;40181;51.560;13.000;2022-10-22T09:08:44;100467.47;;;14.18;100.00
54270;BME280;40181;51.560;13.000;2022-10-22T09:11:26;100482.41;;;14.25;100.00
54270;BME280;40181;51.560;13.000;2022-10-22T09:14:01;100478.03;;;14.21;100.00
54270;BME280;40181;51.560;13.000;2022-10-22T09:16:36;100472.75;;;14.19;100.00
54270;BME280;40181;51.560;13.000;2022-10-22T09:19:22;100469.16;;;14.41;100.00
54270;BME280;40181;51.560;13.000;2022-10-22T09:22:01;100474.44;;;14.42;100.00
54270;BME280;40181;51.560;13.000;2022-10-22T09:24:36;100477.13;;;14.33;100.00
54270;BME280;40181;51.560;13.000;2022-10-22T09:27:10;100481.50;;;14.43;100.00
54270;BME280;40181;51.560;13.000;2022-10-22T09:29:44;100496.53;;;14.25;100.00
54270;BME280;40181;51.560;13.000;2022-10-22T09:32:15;100489.44;;;14.34;100.00
54270;BME280;40181;51.560;13.000;2022-10-22T09:34:45;100493.81;;;14.46;100.00
54270;BME280;40181;51.560;13.000;2022-10-22T09:37:18;100492.94;;;14.45;100.00
54270;BME280;40181;51.560;13.000;2022-10-22T09:39:51;100483.19;;;14.52;100.00
54270;BME280;40181;51.560;13.000;2022-10-22T09:42:21;100484.97;;;14.48;100.00
54270;BME280;40181;51.560;13.000;2022-10-22T09:44:56;100483.19;;;14.52;100.00
54270;BME280;40181;51.560;13.000;2022-10-22T09:47:33;100496.41;;;14.58;100.00
54270;BME280;40181;51.560;13.000;2022-10-22T09:50:17;100500.81;;;14.56;100.00
54270;BME280;40181;51.560;13.000;2022-10-22T09:52:56;100496.34;;;14.71;100.00
54270;BME280;40181;51.560;13.000;2022-10-22T09:55:27;100505.22;;;14.56;100.00
54270;BME280;40181;51.560;13.000;2022-10-22T09:57:59;100498.13;;;14.67;100.00
54270;BME280;40181;51.560;13.000;2022-10-22T10:00:31;100504.38;;;14.50;100.00
54270;BME280;40181;51.560;13.000;2022-10-22T10:03:00;100508.69;;;14.67;100.00
54270;BME280;40181;51.560;13.000;2022-10-22T10:05:32;100510.50;;;14.73;100.00
54270;BME280;40181;51.560;13.000;2022-10-22T10:08:11;100509.56;;;14.83;100.00
54270;BME280;40181;51.560;13.000;2022-10-22T10:10:45;100500.72;;;14.81;100.00
54270;BME280;40181;51.560;13.000;2022-10-22T10:13:36;100508.66;;;14.81;100.00
54270;BME280;40181;51.560;13.000;2022-10-22T10:16:25;100507.78;;;14.84;100.00
54270;BME280;40181;51.560;13.000;2022-10-22T10:19:21;100508.56;;;15.04;100.00
54270;BME280;40181;51.560;13.000;2022-10-22T10:22:06;100511.13;;;15.15;100.00
54270;BME280;40181;51.560;13.000;2022-10-22T10:24:54;100509.41;;;15.13;100.00
54270;BME280;40181;51.560;13.000;2022-10-22T10:27:39;100501.34;;;15.30;100.00
54270;BME280;40181;51.560;13.000;2022-10-22T10:30:12;100507.34;;;15.52;100.00
54270;BME280;40181;51.560;13.000;2022-10-22T10:33:06;100502.81;;;15.67;100.00
54270;BME280;40181;51.560;13.000;2022-10-22T10:35:50;100505.44;;;15.68;100.00
54270;BME280;40181;51.560;13.000;2022-10-22T10:38:34;100515.13;;;15.72;100.00
54270;BME280;40181;51.560;13.000;2022-10-22T10:41:16;100513.38;;;15.70;100.00
54270;BME280;40181;51.560;13.000;2022-10-22T10:44:01;100509.84;;;15.69;100.00
54270;BME280;40181;51.560;13.000;2022-10-22T10:46:56;100509.84;;;15.71;100.00
54270;BME280;40181;51.560;13.000;2022-10-22T10:49:40;100502.75;;;15.73;100.00
54270;BME280;40181;51.560;13.000;2022-10-22T10:52:18;100507.03;;;15.88;100.00
54270;BME280;40181;51.560;13.000;2022-10-22T10:55:00;100519.41;;;15.90;100.00
54270;BME280;40181;51.560;13.000;2022-10-22T10:57:45;100506.09;;;15.97;100.00
54270;BME280;40181;51.560;13.000;2022-10-22T11:00:21;100511.47;;;15.87;100.00
54270;BME280;40181;51.560;13.000;2022-10-22T11:03:25;100501.72;;;15.94;100.00
54270;BME280;40181;51.560;13.000;2022-10-22T11:06:05;100507.75;;;16.09;100.00
54270;BME280;40181;51.560;13.000;2022-10-22T11:08:39;100511.19;;;16.18;99.35
54270;BME280;40181;51.560;13.000;2022-10-22T11:11:17;100517.25;;;16.30;99.48
54270;BME280;40181;51.560;13.000;2022-10-22T11:13:51;100519.97;;;16.22;98.38
54270;BME280;40181;51.560;13.000;2022-10-22T11:16:27;100518.13;;;16.29;98.17
54270;BME280;40181;51.560;13.000;2022-10-22T11:19:06;100522.56;;;16.28;97.04
54270;BME280;40181;51.560;13.000;2022-10-22T11:21:48;100519.66;;;16.52;97.58
54270;BME280;40181;51.560;13.000;2022-10-22T11:24:24;100523.91;;;16.65;96.09
54270;BME280;40181;51.560;13.000;2022-10-22T11:26:59;100516.78;;;16.69;95.73
54270;BME280;40181;51.560;13.000;2022-10-22T11:29:34;100539.78;;;16.68;95.92
54270;BME280;40181;51.560;13.000;2022-10-22T11:32:10;100531.03;;;16.60;94.22
54270;BME280;40181;51.560;13.000;2022-10-22T11:34:45;100526.59;;;16.64;93.50
54270;BME280;40181;51.560;13.000;2022-10-22T11:37:23;100517.22;;;17.05;95.58
54270;BME280;40181;51.560;13.000;2022-10-22T11:40:05;100513.28;;;17.34;90.81
54270;BME280;40181;51.560;13.000;2022-10-22T11:42:37;100516.56;;;17.50;90.67
54270;BME280;40181;51.560;13.000;2022-10-22T11:45:27;100514.22;;;17.30;91.22
54270;BME280;40181;51.560;13.000;2022-10-22T11:48:05;100532.03;;;17.22;91.09
54270;BME280;40181;51.560;13.000;2022-10-22T11:50:46;100534.13;;;16.98;89.85
54270;BME280;40181;51.560;13.000;2022-10-22T11:53:29;100530.56;;;16.97;89.99
54270;BME280;40181;51.560;13.000;2022-10-22T11:56:21;100523.59;;;16.90;90.83
54270;BME280;40181;51.560;13.000;2022-10-22T11:58:53;100524.84;;;17.28;89.12
54270;BME280;40181;51.560;13.000;2022-10-22T12:01:28;100525.44;;;17.48;86.95
54270;BME280;40181;51.560;13.000;2022-10-22T12:04:19;100517.78;;;17.82;85.63
54270;BME280;40181;51.560;13.000;2022-10-22T12:06:57;100506.16;;;17.90;84.67
54270;BME280;40181;51.560;13.000;2022-10-22T12:09:31;100517.19;;;18.20;84.98
54270;BME280;40181;51.560;13.000;2022-10-22T12:12:03;100513.91;;;18.51;83.17
54270;BME280;40181;51.560;13.000;2022-10-22T12:14:51;100514.56;;;18.17;82.52
54270;BME280;40181;51.560;13.000;2022-10-22T12:17:22;100506.66;;;18.58;81.04
54270;BME280;40181;51.560;13.000;2022-10-22T12:19:54;100510.78;;;18.30;79.47
54270;BME280;40181;51.560;13.000;2022-10-22T12:22:30;100518.78;;;17.77;81.80
54270;BME280;40181;51.560;13.000;2022-10-22T12:25:09;100524.81;;;17.87;81.74
54270;BME280;40181;51.560;13.000;2022-10-22T12:27:50;100504.19;;;18.48;81.92
54270;BME280;40181;51.560;13.000;2022-10-22T12:30:23;100508.47;;;18.56;79.86
54270;BME280;40181;51.560;13.000;2022-10-22T12:32:55;100515.34;;;18.23;80.88
54270;BME280;40181;51.560;13.000;2022-10-22T12:35:28;100522.25;;;18.31;79.06
54270;BME280;40181;51.560;13.000;2022-10-22T12:38:00;100512.69;;;18.23;79.51
54270;BME280;40181;51.560;13.000;2022-10-22T12:40:34;100509.75;;;18.37;80.24
54270;BME280;40181;51.560;13.000;2022-10-22T12:43:10;100522.47;;;18.65;79.01
54270;BME280;40181;51.560;13.000;2022-10-22T12:45:42;100518.16;;;18.60;77.98
54270;BME280;40181;51.560;13.000;2022-10-22T12:48:17;100518.38;;;18.49;77.60
54270;BME280;40181;51.560;13.000;2022-10-22T12:50:51;100513.59;;;19.09;75.22
54270;BME280;40181;51.560;13.000;2022-10-22T12:53:25;100528.53;;;18.74;75.28
54270;BME280;40181;51.560;13.000;2022-10-22T12:56:01;100525.91;;;18.27;75.81
54270;BME280;40181;51.560;13.000;2022-10-22T12:58:36;100533.38;;;18.06;76.70
54270;BME280;40181;51.560;13.000;2022-10-22T13:01:09;100514.09;;;18.40;76.01
54270;BME280;40181;51.560;13.000;2022-10-22T13:03:41;100531.94;;;18.35;75.46
54270;BME280;40181;51.560;13.000;2022-10-22T13:06:13;100533.78;;;18.77;74.76
54270;BME280;40181;51.560;13.000;2022-10-22T13:08:56;100535.63;;;18.72;74.16
54270;BME280;40181;51.560;13.000;2022-10-22T13:11:38;100530.31;;;18.28;75.15
54270;BME280;40181;51.560;13.000;2022-10-22T13:14:20;100529.25;;;18.36;75.22
54270;BME280;40181;51.560;13.000;2022-10-22T13:17:08;100534.41;;;18.46;73.94
54270;BME280;40181;51.560;13.000;2022-10-22T13:19:48;100523.66;;;18.93;74.29
54270;BME280;40181;51.560;13.000;2022-10-22T13:22:32;100523.00;;;18.83;72.58
54270;BME280;40181;51.560;13.000;2022-10-22T13:25:18;100528.53;;;18.74;72.01
54270;BME280;40181;51.560;13.000;2022-10-22T13:27:54;100539.41;;;18.61;72.53
54270;BME280;40181;51.560;13.000;2022-10-22T13:30:26;100539.41;;;18.61;72.51
54270;BME280;40181;51.560;13.000;2022-10-22T13:32:58;100540.78;;;18.35;73.01
54270;BME280;40181;51.560;13.000;2022-10-22T13:35:30;100529.94;;;18.46;72.65
54270;BME280;40181;51.560;13.000;2022-10-22T13:38:00;100531.69;;;18.49;73.63
54270;BME280;40181;51.560;13.000;2022-10-22T13:40:30;100530.38;;;18.70;73.36
54270;BME280;40181;51.560;13.000;2022-10-22T13:43:01;100535.81;;;18.62;73.34
54270;BME280;40181;51.560;13.000;2022-10-22T13:45:30;100536.09;;;18.50;72.67
54270;BME280;40181;51.560;13.000;2022-10-22T13:48:00;100533.03;;;18.69;73.16
54270;BME280;40181;51.560;13.000;2022-10-22T13:50:29;100536.72;;;18.63;72.28
54270;BME280;40181;51.560;13.000;2022-10-22T13:52:58;100537.28;;;18.33;74.05
54270;BME280;40181;51.560;13.000;2022-10-22T13:55:29;100532.22;;;18.65;73.85
54270;BME280;40181;51.560;13.000;2022-10-22T13:58:08;100530.47;;;18.65;73.20
54270;BME280;40181;51.560;13.000;2022-10-22T14:00:40;100533.88;;;18.71;72.98
54270;BME280;40181;51.560;13.000;2022-10-22T14:03:14;100538.47;;;18.64;72.39
54270;BME280;40181;51.560;13.000;2022-10-22T14:05:46;100532.41;;;18.57;72.26
54270;BME280;40181;51.560;13.000;2022-10-22T14:08:18;100545.09;;;18.87;71.31
54270;BME280;40181;51.560;13.000;2022-10-22T14:10:49;100554.16;;;18.78;71.79
54270;BME280;40181;51.560;13.000;2022-10-22T14:13:21;100548.53;;;18.92;71.36
54270;BME280;40181;51.560;13.000;2022-10-22T14:15:51;100542.63;;;18.77;71.96
54270;BME280;40181;51.560;13.000;2022-10-22T14:18:22;100544.69;;;18.64;71.70
54270;BME280;40181;51.560;13.000;2022-10-22T14:20:57;100549.00;;;18.70;71.55
54270;BME280;40181;51.560;13.000;2022-10-22T14:23:30;100548.28;;;18.60;71.41
54270;BME280;40181;51.560;13.000;2022-10-22T14:26:01;100540.41;;;18.56;70.83
54270;BME280;40181;51.560;13.000;2022-10-22T14:28:34;100547.84;;;18.36;71.63
54270;BME280;40181;51.560;13.000;2022-10-22T14:31:04;100566.50;;;17.83;73.68
54270;BME280;40181;51.560;13.000;2022-10-22T14:33:33;100554.31;;;18.23;73.50
54270;BME280;40181;51.560;13.000;2022-10-22T14:36:02;100556.41;;;18.05;73.89
54270;BME280;40181;51.560;13.000;2022-10-22T14:38:32;100552.34;;;18.34;73.88
54270;BME280;40181;51.560;13.000;2022-10-22T14:41:01;100549.59;;;18.39;72.91
54270;BME280;40181;51.560;13.000;2022-10-22T14:43:35;100560.09;;;18.47;72.65
54270;BME280;40181;51.560;13.000;2022-10-22T14:46:04;100561.00;;;18.46;73.05
54270;BME280;40181;51.560;13.000;2022-10-22T14:48:33;100552.28;;;18.37;73.84
54270;BME280;40181;51.560;13.000;2022-10-22T14:51:03;100566.38;;;18.41;72.98
54270;BME280;40181;51.560;13.000;2022-10-22T14:53:32;100564.22;;;18.16;73.37